createdAt,value
2022-09-03T00:02:47.422Z,101383.66
2022-09-03T00:06:20.833Z,101380.94
2022-09-03T00:09:28.819Z,101381.84
2022-09-03T00:12:40.192Z,101383.66
2022-09-03T00:15:42.529Z,101380.94
2022-09-03T00:19:03.802Z,101382.72
2022-09-03T00:22:32.374Z,101383.56
2022-09-03T00:25:41.377Z,101379.06
2022-09-03T00:28:52.238Z,101381.63
2022-09-03T00:31:58.282Z,101386.06
2022-09-03T00:35:06.507Z,101386.97
2022-09-03T00:38:09.446Z,101381.66
2022-09-03T00:41:11.387Z,101381.63
2022-09-03T00:44:38.310Z,101380.56
2022-09-03T00:48:17.809Z,101377.91
2022-09-03T00:51:31.991Z,101385.81
2022-09-03T00:54:58.809Z,101389.31
2022-09-03T00:58:13.557Z,101385.63
2022-09-03T01:01:40.776Z,101383.84
2022-09-03T01:05:21.088Z,101388.22
2022-09-03T01:08:42.222Z,101390.78
2022-09-03T01:12:06.791Z,101391.66
2022-09-03T01:15:17.650Z,101388.97
2022-09-03T01:18:46.634Z,101391.56
2022-09-03T01:22:21.065Z,101388.03
2022-09-03T01:25:58.102Z,101389.69
2022-09-03T01:29:23.277Z,101384.34
2022-09-03T01:32:33.330Z,101381.63
2022-09-03T01:35:51.012Z,101381.53
2022-09-03T01:39:04.194Z,101391.19
2022-09-03T01:42:30.184Z,101389.38
2022-09-03T01:45:46.755Z,101384.81
2022-09-03T01:49:06.647Z,101382.94
2022-09-03T01:52:18.191Z,101387.44
2022-09-03T01:55:57.928Z,101383.00
2022-09-03T01:59:21.115Z,101382.00
2022-09-03T02:02:25.992Z,101379.34
2022-09-03T02:05:29.605Z,101373.03
2022-09-03T02:08:32.063Z,101377.44
2022-09-03T02:11:34.236Z,101380.03
2022-09-03T02:14:36.412Z,101373.81
2022-09-03T02:17:40.931Z,101384.28
2022-09-03T02:20:43.421Z,101381.47
2022-09-03T02:23:46.327Z,101376.22
2022-09-03T02:26:48.462Z,101372.53
2022-09-03T02:29:50.711Z,101372.50
2022-09-03T02:32:52.793Z,101376.00
2022-09-03T02:35:55.251Z,101379.47
2022-09-03T02:38:57.792Z,101376.81
2022-09-03T02:42:00.147Z,101380.28
2022-09-03T02:45:13.054Z,101380.22
2022-09-03T02:48:19.202Z,101381.09
2022-09-03T02:51:21.497Z,101369.28
2022-09-03T02:54:23.962Z,101373.72
2022-09-03T02:57:27.891Z,101376.28
2022-09-03T03:00:30.255Z,101368.13
2022-09-03T03:03:32.304Z,101368.19
2022-09-03T03:06:34.553Z,101369.06
2022-09-03T03:09:36.634Z,101368.53
2022-09-03T03:12:39.436Z,101368.56
2022-09-03T03:15:42.064Z,101374.75
2022-09-03T03:18:47.507Z,101370.44
2022-09-03T03:21:49.544Z,101375.78
2022-09-03T03:24:52.837Z,101373.94
2022-09-03T03:27:57.057Z,101386.31
2022-09-03T03:31:05.562Z,101382.78
2022-09-03T03:34:07.704Z,101377.38
2022-09-03T03:37:09.982Z,101397.63
2022-09-03T03:40:12.961Z,101390.34
2022-09-03T03:43:15.133Z,101393.97
2022-09-03T03:46:17.522Z,101405.41
2022-09-03T03:49:19.907Z,101398.94
2022-09-03T03:52:21.986Z,101399.63
2022-09-03T03:55:26.952Z,101402.69
2022-09-03T03:58:31.197Z,101402.47
2022-09-03T04:01:33.509Z,101396.56
2022-09-03T04:04:35.613Z,101388.91
2022-09-03T04:07:37.924Z,101394.13
2022-09-03T04:10:39.992Z,101396.78
2022-09-03T04:13:43.498Z,101386.03
2022-09-03T04:16:46.950Z,101401.91
2022-09-03T04:19:49.658Z,101400.63
2022-09-03T04:22:52.113Z,101399.91
2022-09-03T04:25:54.484Z,101402.63
2022-09-03T04:28:56.792Z,101406.31
2022-09-03T04:32:18.462Z,101410.56
2022-09-03T04:35:21.150Z,101414.97
2022-09-03T04:38:24.358Z,101407.72
2022-09-03T04:41:28.815Z,101403.25
2022-09-03T04:44:31.047Z,101408.63
2022-09-03T04:47:33.176Z,101414.00
2022-09-03T04:50:35.657Z,101407.03
2022-09-03T04:53:42.206Z,101408.09
2022-09-03T04:56:44.782Z,101413.53
2022-09-03T04:59:47.365Z,101408.31
2022-09-03T05:02:51.877Z,101412.09
2022-09-03T05:05:55.472Z,101416.75
2022-09-03T05:08:58.465Z,101416.84
2022-09-03T05:12:00.694Z,101420.59
2022-09-03T05:15:05.413Z,101431.34
2022-09-03T05:18:07.346Z,101421.69
2022-09-03T05:21:11.842Z,101431.56
2022-09-03T05:24:15.293Z,101429.13
2022-09-03T05:27:18.062Z,101431.84
2022-09-03T05:30:22.787Z,101430.97
2022-09-03T05:33:25.109Z,101439.88
2022-09-03T05:36:32.856Z,101441.03
2022-09-03T05:39:35.302Z,101451.19
2022-09-03T05:42:38.887Z,101442.81
2022-09-03T05:45:41.931Z,101441.72
2022-09-03T05:48:44.669Z,101430.03
2022-09-03T05:51:47.030Z,101438.66
2022-09-03T05:54:49.469Z,101426.06
2022-09-03T05:57:52.410Z,101415.75
2022-09-03T06:00:54.631Z,101421.41
2022-09-03T06:04:02.449Z,101409.25
2022-09-03T06:07:04.541Z,101409.34
2022-09-03T06:10:07.847Z,101411.97
2022-09-03T06:13:10.669Z,101413.72
2022-09-03T06:16:13.215Z,101410.78
2022-09-03T06:19:15.899Z,101409.72
2022-09-03T06:22:18.207Z,101404.22
2022-09-03T06:25:20.399Z,101394.25
2022-09-03T06:28:23.661Z,101400.00
2022-09-03T06:31:28.837Z,101394.94
2022-09-03T06:34:31.047Z,101397.16
2022-09-03T06:37:33.271Z,101405.44
2022-09-03T06:40:35.594Z,101400.41
2022-09-03T06:43:40.758Z,101387.41
2022-09-03T06:46:43.412Z,101393.00
2022-09-03T06:49:45.547Z,101389.88
2022-09-03T06:52:56.585Z,101385.22
2022-09-03T06:56:01.850Z,101387.03
2022-09-03T06:59:07.008Z,101385.56
2022-09-03T07:02:09.248Z,101378.16
2022-09-03T07:05:11.946Z,101386.59
2022-09-03T07:08:30.411Z,101382.56
2022-09-03T07:11:33.849Z,101374.97
2022-09-03T07:14:35.961Z,101383.59
2022-09-03T07:17:38.314Z,101379.88
2022-09-03T07:20:40.310Z,101380.72
2022-09-03T07:23:43.462Z,101381.53
2022-09-03T07:26:47.238Z,101385.13
2022-09-03T07:29:49.537Z,101390.41
2022-09-03T07:32:51.766Z,101387.97
2022-09-03T07:35:54.034Z,101387.09
2022-09-03T07:38:57.617Z,101380.69
2022-09-03T07:42:00.854Z,101385.53
2022-09-03T07:45:05.495Z,101394.91
2022-09-03T07:48:07.933Z,101389.03
2022-09-03T07:51:10.201Z,101387.84
2022-09-03T07:54:12.512Z,101386.06
2022-09-03T07:57:14.704Z,101384.84
2022-09-03T08:00:18.043Z,101379.16
2022-09-03T08:03:20.144Z,101379.25
2022-09-03T08:06:24.602Z,101387.56
2022-09-03T08:09:26.839Z,101391.03
2022-09-03T08:12:29.157Z,101395.16
2022-09-03T08:15:32.081Z,101385.97
2022-09-03T08:18:37.895Z,101392.75
2022-09-03T08:21:42.953Z,101392.41
2022-09-03T08:24:45.413Z,101394.81
2022-09-03T08:27:47.420Z,101381.81
2022-09-03T08:30:49.911Z,101387.66
2022-09-03T08:33:54.552Z,101378.97
2022-09-03T08:36:57.119Z,101383.09
2022-09-03T08:40:00.472Z,101382.88
2022-09-03T08:43:17.415Z,101378.69
2022-09-03T08:46:20.757Z,101371.53
2022-09-03T08:49:39.809Z,101369.75
2022-09-03T08:52:49.928Z,101362.13
2022-09-03T08:55:58.691Z,101359.81
2022-09-03T08:59:01.624Z,101354.38
2022-09-03T09:02:25.798Z,101356.91
2022-09-03T09:05:51.929Z,101354.59
2022-09-03T09:09:12.965Z,101346.97
2022-09-03T09:12:34.069Z,101345.41
2022-09-03T09:16:00.911Z,101353.63
2022-09-03T09:19:11.972Z,101337.25
2022-09-03T09:22:30.058Z,101343.03
2022-09-03T09:25:32.900Z,101337.75
2022-09-03T09:28:39.578Z,101341.09
2022-09-03T09:31:45.094Z,101338.72
2022-09-03T09:34:52.069Z,101337.94
2022-09-03T09:37:57.481Z,101344.97
2022-09-03T09:41:15.512Z,101338.19
2022-09-03T09:44:20.238Z,101328.00
2022-09-03T09:47:29.738Z,101332.91
2022-09-03T09:50:31.748Z,101329.88
2022-09-03T09:53:35.307Z,101330.59
2022-09-03T09:56:37.386Z,101326.88
2022-09-03T09:59:39.807Z,101335.59
2022-09-03T10:02:54.535Z,101329.41
2022-09-03T10:06:27.160Z,101328.78
2022-09-03T10:09:31.855Z,101329.06
2022-09-03T10:13:09.372Z,101330.97
2022-09-03T10:16:22.548Z,101320.78
2022-09-03T10:19:34.655Z,101320.81
2022-09-03T10:22:56.098Z,101313.19
2022-09-03T10:26:09.419Z,101313.03
2022-09-03T10:29:12.396Z,101317.50
2022-09-03T10:32:37.841Z,101310.50
2022-09-03T10:36:04.846Z,101310.97
2022-09-03T10:39:33.427Z,101298.38
2022-09-03T10:42:55.280Z,101299.16
2022-09-03T10:46:23.818Z,101291.22
2022-09-03T10:49:54.232Z,101296.00
2022-09-03T10:53:38.729Z,101291.16
2022-09-03T10:56:51.064Z,101290.47
2022-09-03T11:00:15.852Z,101286.75
2022-09-03T11:03:25.955Z,101286.84
2022-09-03T11:06:29.939Z,101279.63
2022-09-03T11:09:40.074Z,101281.28
2022-09-03T11:12:56.432Z,101277.50
2022-09-03T11:16:26.964Z,101284.31
2022-09-03T11:19:48.350Z,101273.66
2022-09-03T11:22:53.405Z,101268.88
2022-09-03T11:26:00.010Z,101282.25
2022-09-03T11:29:13.006Z,101270.75
2022-09-03T11:32:19.363Z,101269.97
2022-09-03T11:35:28.459Z,101271.91
2022-09-03T11:38:34.646Z,101269.78
2022-09-03T11:41:37.551Z,101267.13
2022-09-03T11:44:51.322Z,101253.06
2022-09-03T11:47:54.289Z,101263.97
2022-09-03T11:50:56.681Z,101257.75
2022-09-03T11:54:05.812Z,101255.22
2022-09-03T11:57:16.162Z,101252.53
2022-09-03T12:00:22.571Z,101256.88
2022-09-03T12:03:47.717Z,101247.59
2022-09-03T12:07:07.267Z,101245.56
2022-09-03T12:10:47.022Z,101248.94
2022-09-03T12:14:07.001Z,101243.38
2022-09-03T12:17:35.490Z,101232.78
2022-09-03T12:20:37.882Z,101226.41
2022-09-03T12:23:46.398Z,101220.91
2022-09-03T12:26:48.458Z,101222.44
2022-09-03T12:29:59.838Z,101210.91
2022-09-03T12:33:11.987Z,101218.16
2022-09-03T12:36:14.729Z,101212.97
2022-09-03T12:42:50.765Z,101218.72
2022-09-03T12:46:10.484Z,101202.88
2022-09-03T12:49:30.993Z,101211.75
2022-09-03T12:52:43.181Z,101202.19
2022-09-03T12:55:53.980Z,101191.28
2022-09-03T12:58:59.582Z,101196.28
2022-09-03T13:02:09.856Z,101189.34
2022-09-03T13:05:17.144Z,101181.94
2022-09-03T13:08:26.748Z,101187.53
2022-09-03T13:11:33.204Z,101184.47
2022-09-03T13:14:48.268Z,101183.19
2022-09-03T13:18:19.488Z,101182.22
2022-09-03T13:21:27.900Z,101176.75
2022-09-03T13:24:48.482Z,101178.97
2022-09-03T13:27:56.445Z,101169.13
2022-09-03T13:31:26.181Z,101171.91
2022-09-03T13:34:35.507Z,101167.81
2022-09-03T13:37:48.331Z,101165.66
2022-09-03T13:41:10.798Z,101164.13
2022-09-03T13:44:24.843Z,101159.53
2022-09-03T13:48:09.032Z,101160.50
2022-09-03T13:51:16.775Z,101157.44
2022-09-03T13:54:48.557Z,101161.38
2022-09-03T13:58:02.303Z,101154.44
2022-09-03T14:01:13.471Z,101156.19
2022-09-03T14:04:23.115Z,101146.81
2022-09-03T14:07:39.222Z,101143.75
2022-09-03T14:11:20.217Z,101147.75
2022-09-03T14:15:00.123Z,101149.25
2022-09-03T14:18:39.823Z,101151.81
2022-09-03T14:21:47.467Z,101158.22
2022-09-03T14:24:55.098Z,101155.31
2022-09-03T14:28:34.020Z,101152.03
2022-09-03T14:31:58.070Z,101152.84
2022-09-03T14:35:28.895Z,101137.13
2022-09-03T14:38:58.366Z,101144.88
2022-09-03T14:42:06.481Z,101141.00
2022-09-03T14:46:03.579Z,101146.00
2022-09-03T14:49:14.215Z,101143.56
2022-09-03T14:52:28.805Z,101147.22
2022-09-03T14:56:07.134Z,101140.28
2022-09-03T14:59:40.202Z,101138.81
2022-09-03T15:03:01.283Z,101143.03
2022-09-03T15:06:33.913Z,101137.06
2022-09-03T15:09:46.263Z,101138.28
2022-09-03T15:12:59.853Z,101133.69
2022-09-03T15:16:02.312Z,101142.56
2022-09-03T15:19:14.364Z,101138.75
2022-09-03T15:22:28.440Z,101128.81
2022-09-03T15:25:52.323Z,101132.19
2022-09-03T15:29:16.548Z,101127.97
2022-09-03T15:32:47.245Z,101132.97
2022-09-03T15:36:04.288Z,101136.28
2022-09-03T15:39:06.379Z,101137.66
2022-09-03T15:42:31.816Z,101142.47
2022-09-03T15:45:40.777Z,101146.56
2022-09-03T15:49:03.420Z,101144.78
2022-09-03T15:52:11.350Z,101145.41
2022-09-03T15:55:15.003Z,101136.38
2022-09-03T15:58:37.647Z,101149.16
2022-09-03T16:01:58.097Z,101149.38
2022-09-03T16:05:08.171Z,101146.66
2022-09-03T16:08:32.548Z,101156.25
2022-09-03T16:11:49.818Z,101150.97
2022-09-03T16:15:02.677Z,101149.38
2022-09-03T16:18:35.811Z,101152.72
2022-09-03T16:22:25.772Z,101152.88
2022-09-03T16:25:33.113Z,101152.88
2022-09-03T16:32:22.900Z,101165.41
2022-09-03T16:35:55.902Z,101162.47
2022-09-03T16:39:16.727Z,101161.41
2022-09-03T16:42:41.193Z,101160.25
2022-09-03T16:45:51.950Z,101156.56
2022-09-03T16:49:23.258Z,101161.91
2022-09-03T16:52:43.762Z,101163.91
2022-09-03T16:56:04.437Z,101165.97
2022-09-03T16:59:44.095Z,101171.84
2022-09-03T17:03:01.137Z,101170.72
2022-09-03T17:06:22.002Z,101169.25
2022-09-03T17:09:39.049Z,101173.22
2022-09-03T17:13:02.335Z,101176.38
2022-09-03T17:16:23.652Z,101179.59
2022-09-03T17:19:38.809Z,101181.19
2022-09-03T17:23:18.666Z,101185.28
2022-09-03T17:26:47.827Z,101187.81
2022-09-03T17:30:05.344Z,101182.94
2022-09-03T17:33:35.641Z,101197.09
2022-09-03T17:36:38.890Z,101198.75
2022-09-03T17:39:50.018Z,101197.50
2022-09-03T17:43:17.189Z,101205.22
2022-09-03T17:46:42.008Z,101215.72
2022-09-03T17:49:54.373Z,101218.81
2022-09-03T17:53:26.878Z,101226.56
2022-09-03T17:56:55.556Z,101225.22
2022-09-03T18:00:08.004Z,101228.53
2022-09-03T18:03:27.601Z,101217.50
2022-09-03T18:06:52.940Z,101227.09
2022-09-03T18:10:32.896Z,101219.00
2022-09-03T18:13:47.636Z,101223.25
2022-09-03T18:17:00.166Z,101225.66
2022-09-03T18:20:30.353Z,101229.75
2022-09-03T18:23:57.973Z,101218.56
2022-09-03T18:27:22.648Z,101224.22
2022-09-03T18:30:44.739Z,101236.06
2022-09-03T18:34:08.019Z,101234.56
2022-09-03T18:37:29.418Z,101236.56
2022-09-03T18:41:15.291Z,101226.94
2022-09-03T18:45:06.638Z,101228.00
2022-09-03T18:49:14.024Z,101240.81
2022-09-03T18:53:00.994Z,101240.22
2022-09-03T18:56:35.074Z,101241.38
2022-09-03T19:00:10.032Z,101248.75
2022-09-03T19:03:39.755Z,101248.16
2022-09-03T19:07:21.433Z,101243.81
2022-09-03T19:10:48.355Z,101246.59
2022-09-03T19:14:10.074Z,101246.78
2022-09-03T19:18:00.559Z,101254.97
2022-09-03T19:21:43.225Z,101246.22
2022-09-03T19:25:03.791Z,101252.63
2022-09-03T19:28:49.953Z,101251.75
2022-09-03T19:32:23.565Z,101260.72
2022-09-03T19:35:55.776Z,101259.00
2022-09-03T19:39:22.473Z,101256.44
2022-09-03T19:43:00.689Z,101261.03
2022-09-03T19:46:41.601Z,101256.66
2022-09-03T19:50:21.301Z,101270.94
2022-09-03T19:53:42.676Z,101279.94
2022-09-03T19:57:04.885Z,101272.84
2022-09-03T20:00:32.518Z,101277.41
2022-09-03T20:03:54.838Z,101273.88
2022-09-03T20:07:17.425Z,101272.97
2022-09-03T20:10:23.976Z,101275.66
2022-09-03T20:13:26.550Z,101279.28
2022-09-03T20:16:34.663Z,101275.72
2022-09-03T20:19:42.813Z,101268.59
2022-09-03T20:22:51.661Z,101277.50
2022-09-03T20:26:02.256Z,101283.78
2022-09-03T20:29:23.500Z,101277.56
2022-09-03T20:32:25.654Z,101286.50
2022-09-03T20:35:36.937Z,101286.47
2022-09-03T20:38:38.930Z,101291.84
2022-09-03T20:42:02.920Z,101291.81
2022-09-03T20:45:16.706Z,101289.16
2022-09-03T20:49:05.228Z,101303.41
2022-09-03T20:52:21.088Z,101298.09
2022-09-03T20:55:29.948Z,101304.31
2022-09-03T20:58:37.934Z,101307.91
2022-09-03T21:02:03.675Z,101311.44
2022-09-03T21:05:12.579Z,101317.66
2022-09-03T21:08:44.039Z,101315.03
2022-09-03T21:12:03.774Z,101321.25
2022-09-03T21:15:18.479Z,101317.69
2022-09-03T21:18:38.934Z,101326.59
2022-09-03T21:22:03.151Z,101323.91
2022-09-03T21:25:09.562Z,101325.69
2022-09-03T21:28:22.528Z,101328.34
2022-09-03T21:31:31.923Z,101332.81
2022-09-03T21:34:45.326Z,101325.72
2022-09-03T21:37:58.344Z,101318.59
2022-09-03T21:41:17.502Z,101328.34
2022-09-03T21:44:39.437Z,101323.91
2022-09-03T21:47:45.304Z,101328.34
2022-09-03T21:50:53.194Z,101326.56
2022-09-03T21:54:17.071Z,101323.91
2022-09-03T21:57:22.215Z,101327.44
2022-09-03T22:00:32.787Z,101329.22
2022-09-03T22:03:35.212Z,101332.78
2022-09-03T22:06:49.259Z,101343.47
2022-09-03T22:10:16.754Z,101338.13
2022-09-03T22:13:32.177Z,101352.38
2022-09-03T22:16:43.188Z,101352.38
2022-09-03T22:19:46.002Z,101351.47
2022-09-03T22:23:11.876Z,101341.66
2022-09-03T22:26:26.934Z,101344.34
2022-09-03T22:29:46.754Z,101330.09
2022-09-03T22:32:54.392Z,101343.44
2022-09-03T22:36:25.484Z,101360.31
2022-09-03T22:39:36.611Z,101354.09
2022-09-03T22:43:05.147Z,101357.63
2022-09-03T22:46:12.040Z,101365.63
2022-09-03T22:49:53.091Z,101354.06
2022-09-03T22:53:26.456Z,101354.94
2022-09-03T22:56:32.222Z,101353.13
2022-09-03T22:59:41.802Z,101350.44
2022-09-03T23:02:46.484Z,101354.00
2022-09-03T23:06:02.477Z,101355.78
2022-09-03T23:09:10.267Z,101356.63
2022-09-03T23:12:21.944Z,101354.88
2022-09-03T23:15:29.985Z,101359.31
2022-09-03T23:18:34.021Z,101362.84
2022-09-03T23:21:41.005Z,101370.84
2022-09-03T23:24:50.390Z,101373.47
2022-09-03T23:27:55.154Z,101369.88
2022-09-03T23:31:12.068Z,101381.41
2022-09-03T23:34:14.142Z,101382.28
2022-09-03T23:37:55.199Z,101392.97
2022-09-03T23:41:01.189Z,101397.34
2022-09-03T23:44:33.225Z,101393.75
2022-09-03T23:47:44.972Z,101395.50
2022-09-03T23:50:58.367Z,101389.25
2022-09-03T23:54:38.126Z,101397.16
2022-09-03T23:57:41.745Z,101393.56
